sensor_id;sensor_type;location;lat;lon;timestamp;noise_LAeq;noise_LA_min;noise_LA_max;noise_LA01;noise_LA95
70245;Laerm;57637;49.272;8.590;2023-05-10T00:01:51;32.08;29.92;43.71;;
70245;Laerm;57637;49.272;8.590;2023-05-10T00:04:17;32.31;30.40;44.22;;
70245;Laerm;57637;49.272;8.590;2023-05-10T00:06:42;33.96;30.52;53.25;;
70245;Laerm;57637;49.272;8.590;2023-05-10T00:09:07;34.40;31.40;48.73;;
70245;Laerm;57637;49.272;8.590;2023-05-10T00:11:33;32.81;30.37;42.21;;
70245;Laerm;57637;49.272;8.590;2023-05-10T00:13:58;33.87;31.15;42.92;;
70245;Laerm;57637;49.272;8.590;2023-05-10T00:16:24;33.73;31.83;43.65;;
70245;Laerm;57637;49.272;8.590;2023-05-10T00:18:49;32.96;30.88;41.92;;
70245;Laerm;57637;49.272;8.590;2023-05-10T00:21:14;33.39;31.15;43.69;;
70245;Laerm;57637;49.272;8.590;2023-05-10T00:23:40;32.96;29.82;56.54;;
70245;Laerm;57637;49.272;8.590;2023-05-10T00:26:05;31.92;29.89;45.04;;
70245;Laerm;57637;49.272;8.590;2023-05-10T00:28:31;31.84;29.59;45.04;;
70245;Laerm;57637;49.272;8.590;2023-05-10T00:30:56;31.65;29.08;46.36;;
70245;Laerm;57637;49.272;8.590;2023-05-10T00:33:22;31.41;29.08;43.48;;
70245;Laerm;57637;49.272;8.590;2023-05-10T00:35:47;31.17;29.11;41.18;;
70245;Laerm;57637;49.272;8.590;2023-05-10T00:38:13;31.14;29.08;44.09;;
70245;Laerm;57637;49.272;8.590;2023-05-10T00:40:38;31.21;29.16;41.43;;
70245;Laerm;57637;49.272;8.590;2023-05-10T00:43:03;30.95;28.64;42.54;;
70245;Laerm;57637;49.272;8.590;2023-05-10T00:45:31;39.03;29.17;53.33;;
70245;Laerm;57637;49.272;8.590;2023-05-10T00:47:58;31.96;29.57;44.48;;
70245;Laerm;57637;49.272;8.590;2023-05-10T00:50:25;31.56;29.49;43.15;;
70245;Laerm;57637;49.272;8.590;2023-05-10T00:52:51;31.60;29.49;41.63;;
70245;Laerm;57637;49.272;8.590;2023-05-10T00:55:17;31.58;29.37;43.00;;
70245;Laerm;57637;49.272;8.590;2023-05-10T00:57:43;31.38;29.34;43.26;;
70245;Laerm;57637;49.272;8.590;2023-05-10T01:00:08;31.34;29.19;41.80;;
70245;Laerm;57637;49.272;8.590;2023-05-10T01:02:34;33.23;29.88;46.17;;
70245;Laerm;57637;49.272;8.590;2023-05-10T01:05:01;32.13;29.46;41.24;;
70245;Laerm;57637;49.272;8.590;2023-05-10T01:07:28;32.91;30.35;49.19;;
70245;Laerm;57637;49.272;8.590;2023-05-10T01:09:53;32.49;29.67;45.56;;
70245;Laerm;57637;49.272;8.590;2023-05-10T01:12:18;32.04;29.79;39.73;;
70245;Laerm;57637;49.272;8.590;2023-05-10T01:14:44;31.83;29.49;42.34;;
70245;Laerm;57637;49.272;8.590;2023-05-10T01:17:11;33.51;29.34;44.20;;
70245;Laerm;57637;49.272;8.590;2023-05-10T01:19:37;32.29;29.22;41.98;;
70245;Laerm;57637;49.272;8.590;2023-05-10T01:27:41;31.77;29.32;42.58;;
70245;Laerm;57637;49.272;8.590;2023-05-10T01:31:21;31.61;29.23;41.66;;
70245;Laerm;57637;49.272;8.590;2023-05-10T01:36:35;31.80;29.60;44.86;;
70245;Laerm;57637;49.272;8.590;2023-05-10T01:39:25;31.14;28.86;36.86;;
70245;Laerm;57637;49.272;8.590;2023-05-10T01:41:51;31.24;29.34;42.06;;
70245;Laerm;57637;49.272;8.590;2023-05-10T01:47:11;32.16;29.73;44.84;;
70245;Laerm;57637;49.272;8.590;2023-05-10T01:49:47;33.30;30.53;38.87;;
70245;Laerm;57637;49.272;8.590;2023-05-10T01:52:17;32.01;29.52;36.47;;
70245;Laerm;57637;49.272;8.590;2023-05-10T01:55:05;32.23;29.74;48.20;;
70245;Laerm;57637;49.272;8.590;2023-05-10T01:57:36;32.06;29.19;38.21;;
70245;Laerm;57637;49.272;8.590;2023-05-10T02:00:06;32.74;30.04;42.81;;
70245;Laerm;57637;49.272;8.590;2023-05-10T02:02:36;33.23;30.54;38.06;;
70245;Laerm;57637;49.272;8.590;2023-05-10T02:05:04;32.76;30.05;47.23;;
70245;Laerm;57637;49.272;8.590;2023-05-10T02:07:32;32.89;30.50;37.43;;
70245;Laerm;57637;49.272;8.590;2023-05-10T02:09:58;34.91;31.13;47.18;;
70245;Laerm;57637;49.272;8.590;2023-05-10T02:12:24;35.59;32.05;40.11;;
70245;Laerm;57637;49.272;8.590;2023-05-10T02:14:51;35.51;31.59;39.96;;
70245;Laerm;57637;49.272;8.590;2023-05-10T02:17:18;35.57;31.74;43.28;;
70245;Laerm;57637;49.272;8.590;2023-05-10T02:19:45;34.52;30.79;49.10;;
70245;Laerm;57637;49.272;8.590;2023-05-10T02:22:12;37.39;30.50;58.54;;
70245;Laerm;57637;49.272;8.590;2023-05-10T02:24:39;38.38;30.33;62.04;;
70245;Laerm;57637;49.272;8.590;2023-05-10T02:27:06;38.26;30.55;58.82;;
70245;Laerm;57637;49.272;8.590;2023-05-10T02:29:32;35.79;30.16;54.25;;
70245;Laerm;57637;49.272;8.590;2023-05-10T02:31:58;40.62;29.79;64.18;;
70245;Laerm;57637;49.272;8.590;2023-05-10T02:34:27;35.52;30.20;52.45;;
70245;Laerm;57637;49.272;8.590;2023-05-10T02:36:54;39.45;30.28;60.44;;
70245;Laerm;57637;49.272;8.590;2023-05-10T02:39:21;40.08;30.71;63.69;;
70245;Laerm;57637;49.272;8.590;2023-05-10T02:41:48;35.06;30.89;48.97;;
70245;Laerm;57637;49.272;8.590;2023-05-10T02:44:15;40.21;30.67;60.86;;
70245;Laerm;57637;49.272;8.590;2023-05-10T02:46:42;38.54;30.23;60.01;;
70245;Laerm;57637;49.272;8.590;2023-05-10T02:49:08;40.34;30.21;62.23;;
70245;Laerm;57637;49.272;8.590;2023-05-10T02:51:36;39.76;30.39;63.09;;
70245;Laerm;57637;49.272;8.590;2023-05-10T02:54:07;34.10;30.83;44.89;;
70245;Laerm;57637;49.272;8.590;2023-05-10T02:56:36;39.82;31.26;60.24;;
70245;Laerm;57637;49.272;8.590;2023-05-10T02:59:05;41.74;31.76;65.36;;
70245;Laerm;57637;49.272;8.590;2023-05-10T03:01:30;39.32;31.86;53.83;;
70245;Laerm;57637;49.272;8.590;2023-05-10T03:03:55;44.41;33.00;67.20;;
70245;Laerm;57637;49.272;8.590;2023-05-10T03:06:21;49.39;31.69;71.17;;
70245;Laerm;57637;49.272;8.590;2023-05-10T03:08:46;50.00;33.05;63.83;;
70245;Laerm;57637;49.272;8.590;2023-05-10T03:11:24;50.59;33.92;64.56;;
70245;Laerm;57637;49.272;8.590;2023-05-10T03:14:16;50.87;34.24;66.06;;
70245;Laerm;57637;49.272;8.590;2023-05-10T03:16:52;50.81;34.36;67.95;;
70245;Laerm;57637;49.272;8.590;2023-05-10T03:19:26;47.93;33.33;66.35;;
70245;Laerm;57637;49.272;8.590;2023-05-10T03:21:53;47.06;33.51;61.09;;
70245;Laerm;57637;49.272;8.590;2023-05-10T03:24:21;47.51;33.77;61.00;;
70245;Laerm;57637;49.272;8.590;2023-05-10T03:26:49;45.49;33.75;59.47;;
70245;Laerm;57637;49.272;8.590;2023-05-10T03:29:15;40.66;33.96;56.97;;
70245;Laerm;57637;49.272;8.590;2023-05-10T03:31:41;48.19;33.92;65.70;;
70245;Laerm;57637;49.272;8.590;2023-05-10T03:34:07;49.80;34.13;65.05;;
70245;Laerm;57637;49.272;8.590;2023-05-10T03:36:32;55.59;33.59;72.95;;
70245;Laerm;57637;49.272;8.590;2023-05-10T03:38:58;54.41;34.85;72.98;;
70245;Laerm;57637;49.272;8.590;2023-05-10T03:41:23;55.00;35.47;72.91;;
70245;Laerm;57637;49.272;8.590;2023-05-10T03:43:50;60.45;35.45;78.53;;
70245;Laerm;57637;49.272;8.590;2023-05-10T03:46:15;49.55;34.32;61.87;;
70245;Laerm;57637;49.272;8.590;2023-05-10T03:48:40;48.42;34.52;61.40;;
70245;Laerm;57637;49.272;8.590;2023-05-10T03:51:06;51.02;34.11;64.41;;
70245;Laerm;57637;49.272;8.590;2023-05-10T03:53:31;46.60;33.54;62.89;;
70245;Laerm;57637;49.272;8.590;2023-05-10T03:55:56;46.68;33.83;62.55;;
70245;Laerm;57637;49.272;8.590;2023-05-10T03:58:22;42.48;34.98;58.03;;
70245;Laerm;57637;49.272;8.590;2023-05-10T04:00:47;40.75;34.61;56.99;;
70245;Laerm;57637;49.272;8.590;2023-05-10T04:03:13;46.18;34.25;60.81;;
70245;Laerm;57637;49.272;8.590;2023-05-10T04:05:38;40.44;34.06;58.13;;
70245;Laerm;57637;49.272;8.590;2023-05-10T04:08:04;41.46;33.83;57.87;;
70245;Laerm;57637;49.272;8.590;2023-05-10T04:10:31;42.89;33.74;62.44;;
70245;Laerm;57637;49.272;8.590;2023-05-10T04:12:56;41.77;34.32;59.80;;
70245;Laerm;57637;49.272;8.590;2023-05-10T04:15:22;44.98;34.03;62.68;;
70245;Laerm;57637;49.272;8.590;2023-05-10T04:17:47;48.21;35.05;61.54;;
70245;Laerm;57637;49.272;8.590;2023-05-10T04:20:13;39.62;35.48;56.60;;
70245;Laerm;57637;49.272;8.590;2023-05-10T04:22:38;39.37;34.43;62.88;;
70245;Laerm;57637;49.272;8.590;2023-05-10T04:25:04;38.62;34.56;51.49;;
70245;Laerm;57637;49.272;8.590;2023-05-10T04:27:30;40.27;33.81;61.19;;
70245;Laerm;57637;49.272;8.590;2023-05-10T04:29:56;43.69;34.41;67.21;;
70245;Laerm;57637;49.272;8.590;2023-05-10T04:32:21;40.09;34.44;57.31;;
70245;Laerm;57637;49.272;8.590;2023-05-10T04:34:47;38.17;34.13;50.20;;
70245;Laerm;57637;49.272;8.590;2023-05-10T04:37:12;37.69;34.14;45.62;;
70245;Laerm;57637;49.272;8.590;2023-05-10T04:39:38;39.65;34.91;53.63;;
70245;Laerm;57637;49.272;8.590;2023-05-10T04:42:04;47.68;35.08;62.85;;
70245;Laerm;57637;49.272;8.590;2023-05-10T04:44:31;47.56;35.98;61.42;;
70245;Laerm;57637;49.272;8.590;2023-05-10T04:46:56;47.04;35.86;62.95;;
70245;Laerm;57637;49.272;8.590;2023-05-10T04:49:22;40.76;35.65;52.08;;
70245;Laerm;57637;49.272;8.590;2023-05-10T04:51:48;42.22;34.61;53.71;;
70245;Laerm;57637;49.272;8.590;2023-05-10T04:54:13;47.43;35.20;65.03;;
70245;Laerm;57637;49.272;8.590;2023-05-10T04:56:38;47.89;36.52;72.73;;
70245;Laerm;57637;49.272;8.590;2023-05-10T04:59:04;42.10;35.60;57.31;;
70245;Laerm;57637;49.272;8.590;2023-05-10T05:01:29;42.07;35.42;58.16;;
70245;Laerm;57637;49.272;8.590;2023-05-10T05:03:54;41.25;35.28;55.82;;
70245;Laerm;57637;49.272;8.590;2023-05-10T05:06:20;41.10;35.47;58.05;;
70245;Laerm;57637;49.272;8.590;2023-05-10T05:08:49;40.80;36.14;57.13;;
70245;Laerm;57637;49.272;8.590;2023-05-10T05:11:15;40.94;35.77;58.66;;
70245;Laerm;57637;49.272;8.590;2023-05-10T05:13:40;41.97;35.20;56.81;;
70245;Laerm;57637;49.272;8.590;2023-05-10T05:16:06;40.40;35.32;54.40;;
70245;Laerm;57637;49.272;8.590;2023-05-10T05:18:31;39.19;35.52;51.60;;
70245;Laerm;57637;49.272;8.590;2023-05-10T05:20:57;53.90;36.45;72.11;;
70245;Laerm;57637;49.272;8.590;2023-05-10T05:23:22;52.63;36.30;69.54;;
70245;Laerm;57637;49.272;8.590;2023-05-10T05:25:51;43.25;36.44;55.28;;
70245;Laerm;57637;49.272;8.590;2023-05-10T05:28:17;45.48;35.98;66.12;;
70245;Laerm;57637;49.272;8.590;2023-05-10T05:30:42;42.93;35.59;58.67;;
70245;Laerm;57637;49.272;8.590;2023-05-10T05:33:07;45.11;34.75;63.13;;
70245;Laerm;57637;49.272;8.590;2023-05-10T05:35:33;43.25;35.81;57.06;;
70245;Laerm;57637;49.272;8.590;2023-05-10T05:37:58;43.65;36.10;56.94;;
70245;Laerm;57637;49.272;8.590;2023-05-10T05:40:24;40.82;35.08;63.40;;
70245;Laerm;57637;49.272;8.590;2023-05-10T05:42:49;40.90;35.27;56.99;;
70245;Laerm;57637;49.272;8.590;2023-05-10T05:45:15;41.22;35.44;59.50;;
70245;Laerm;57637;49.272;8.590;2023-05-10T05:47:40;43.30;35.76;60.30;;
70245;Laerm;57637;49.272;8.590;2023-05-10T05:50:06;42.61;35.93;52.88;;
70245;Laerm;57637;49.272;8.590;2023-05-10T05:52:32;41.02;35.65;53.56;;
70245;Laerm;57637;49.272;8.590;2023-05-10T05:54:57;39.79;35.60;55.23;;
70245;Laerm;57637;49.272;8.590;2023-05-10T05:57:22;39.78;35.21;55.70;;
70245;Laerm;57637;49.272;8.590;2023-05-10T05:59:48;43.51;36.29;62.05;;
70245;Laerm;57637;49.272;8.590;2023-05-10T06:02:13;42.18;35.51;55.76;;
70245;Laerm;57637;49.272;8.590;2023-05-10T06:04:39;42.49;35.19;61.48;;
70245;Laerm;57637;49.272;8.590;2023-05-10T06:07:04;40.17;34.79;61.90;;
70245;Laerm;57637;49.272;8.590;2023-05-10T06:09:29;44.62;35.26;59.64;;
70245;Laerm;57637;49.272;8.590;2023-05-10T06:11:55;40.97;34.95;52.09;;
70245;Laerm;57637;49.272;8.590;2023-05-10T06:14:20;43.93;35.35;59.94;;
70245;Laerm;57637;49.272;8.590;2023-05-10T06:16:46;43.54;35.16;59.38;;
70245;Laerm;57637;49.272;8.590;2023-05-10T06:19:11;42.42;36.00;59.56;;
70245;Laerm;57637;49.272;8.590;2023-05-10T06:21:37;45.32;35.68;55.91;;
70245;Laerm;57637;49.272;8.590;2023-05-10T06:24:02;44.65;38.67;68.08;;
70245;Laerm;57637;49.272;8.590;2023-05-10T06:26:28;44.53;36.13;60.71;;
70245;Laerm;57637;49.272;8.590;2023-05-10T06:28:53;42.53;35.22;58.84;;
70245;Laerm;57637;49.272;8.590;2023-05-10T06:31:19;39.39;33.07;53.16;;
70245;Laerm;57637;49.272;8.590;2023-05-10T06:33:44;39.01;33.51;60.36;;
70245;Laerm;57637;49.272;8.590;2023-05-10T06:36:10;39.97;33.22;54.58;;
70245;Laerm;57637;49.272;8.590;2023-05-10T06:38:36;41.77;33.19;58.18;;
70245;Laerm;57637;49.272;8.590;2023-05-10T06:41:01;38.86;32.94;51.56;;
70245;Laerm;57637;49.272;8.590;2023-05-10T06:43:26;40.90;33.49;54.68;;
70245;Laerm;57637;49.272;8.590;2023-05-10T06:45:53;41.24;33.20;56.64;;
70245;Laerm;57637;49.272;8.590;2023-05-10T06:48:19;45.00;33.25;61.78;;
70245;Laerm;57637;49.272;8.590;2023-05-10T06:50:44;41.95;33.13;57.38;;
70245;Laerm;57637;49.272;8.590;2023-05-10T06:53:10;43.26;33.46;63.09;;
70245;Laerm;57637;49.272;8.590;2023-05-10T06:55:35;43.50;33.65;60.16;;
70245;Laerm;57637;49.272;8.590;2023-05-10T06:58:01;39.33;33.79;59.38;;
70245;Laerm;57637;49.272;8.590;2023-05-10T07:00:27;38.86;32.52;64.23;;
70245;Laerm;57637;49.272;8.590;2023-05-10T07:02:52;41.77;32.83;59.83;;
70245;Laerm;57637;49.272;8.590;2023-05-10T07:05:18;39.60;33.64;58.97;;
70245;Laerm;57637;49.272;8.590;2023-05-10T07:07:43;42.72;35.20;58.78;;
70245;Laerm;57637;49.272;8.590;2023-05-10T07:10:09;43.62;34.75;58.41;;
70245;Laerm;57637;49.272;8.590;2023-05-10T07:12:34;44.49;34.95;61.69;;
70245;Laerm;57637;49.272;8.590;2023-05-10T07:15:00;42.72;34.57;63.43;;
70245;Laerm;57637;49.272;8.590;2023-05-10T07:17:25;39.98;34.94;52.69;;
70245;Laerm;57637;49.272;8.590;2023-05-10T07:19:50;38.33;33.06;56.04;;
70245;Laerm;57637;49.272;8.590;2023-05-10T07:22:16;43.26;33.84;58.36;;
70245;Laerm;57637;49.272;8.590;2023-05-10T07:24:44;40.24;33.23;57.59;;
70245;Laerm;57637;49.272;8.590;2023-05-10T07:27:09;43.70;34.18;64.20;;
70245;Laerm;57637;49.272;8.590;2023-05-10T07:29:35;44.24;33.11;62.91;;
70245;Laerm;57637;49.272;8.590;2023-05-10T07:32:01;38.63;33.36;52.02;;
70245;Laerm;57637;49.272;8.590;2023-05-10T07:34:26;39.03;32.82;52.73;;
70245;Laerm;57637;49.272;8.590;2023-05-10T07:36:52;41.12;33.51;60.48;;
70245;Laerm;57637;49.272;8.590;2023-05-10T07:39:18;43.90;33.86;57.96;;
70245;Laerm;57637;49.272;8.590;2023-05-10T07:41:43;47.10;33.81;62.37;;
70245;Laerm;57637;49.272;8.590;2023-05-10T07:44:08;41.29;32.82;58.97;;
70245;Laerm;57637;49.272;8.590;2023-05-10T07:46:34;39.10;32.87;60.22;;
70245;Laerm;57637;49.272;8.590;2023-05-10T07:48:59;39.15;34.03;52.59;;
70245;Laerm;57637;49.272;8.590;2023-05-10T07:51:25;45.31;33.16;64.07;;
70245;Laerm;57637;49.272;8.590;2023-05-10T07:53:50;40.03;32.17;64.09;;
70245;Laerm;57637;49.272;8.590;2023-05-10T07:56:24;37.93;31.93;56.94;;
70245;Laerm;57637;49.272;8.590;2023-05-10T07:58:51;41.94;31.66;61.28;;
70245;Laerm;57637;49.272;8.590;2023-05-10T08:01:16;41.59;32.43;69.07;;
70245;Laerm;57637;49.272;8.590;2023-05-10T08:03:42;45.96;32.20;64.72;;
70245;Laerm;57637;49.272;8.590;2023-05-10T08:06:07;42.02;31.96;59.16;;
70245;Laerm;57637;49.272;8.590;2023-05-10T08:08:36;48.68;31.83;59.90;;
70245;Laerm;57637;49.272;8.590;2023-05-10T08:11:01;47.74;34.52;66.05;;
70245;Laerm;57637;49.272;8.590;2023-05-10T08:13:27;42.19;33.73;61.45;;
70245;Laerm;57637;49.272;8.590;2023-05-10T08:15:52;41.16;33.59;60.14;;
70245;Laerm;57637;49.272;8.590;2023-05-10T08:18:18;40.41;33.14;59.94;;
70245;Laerm;57637;49.272;8.590;2023-05-10T08:20:44;39.83;32.07;59.60;;
70245;Laerm;57637;49.272;8.590;2023-05-10T08:23:09;39.20;31.77;59.15;;
70245;Laerm;57637;49.272;8.590;2023-05-10T08:25:35;40.60;32.19;59.47;;
70245;Laerm;57637;49.272;8.590;2023-05-10T08:28:00;39.58;32.30;55.58;;
70245;Laerm;57637;49.272;8.590;2023-05-10T08:30:26;38.24;31.63;52.67;;
70245;Laerm;57637;49.272;8.590;2023-05-10T08:32:51;36.66;31.23;52.07;;
70245;Laerm;57637;49.272;8.590;2023-05-10T08:35:16;42.01;33.33;63.20;;
70245;Laerm;57637;49.272;8.590;2023-05-10T08:37:42;39.21;33.68;59.03;;
70245;Laerm;57637;49.272;8.590;2023-05-10T08:40:08;40.38;32.93;55.49;;
70245;Laerm;57637;49.272;8.590;2023-05-10T08:42:39;40.00;32.43;59.51;;
70245;Laerm;57637;49.272;8.590;2023-05-10T08:45:07;37.00;32.41;49.24;;
70245;Laerm;57637;49.272;8.590;2023-05-10T08:47:36;38.14;32.80;51.17;;
70245;Laerm;57637;49.272;8.590;2023-05-10T08:50:03;38.16;32.72;52.37;;
70245;Laerm;57637;49.272;8.590;2023-05-10T08:52:30;37.84;32.83;56.78;;
70245;Laerm;57637;49.272;8.590;2023-05-10T08:54:56;39.76;32.45;60.23;;
70245;Laerm;57637;49.272;8.590;2023-05-10T08:57:22;38.37;31.67;55.13;;
70245;Laerm;57637;49.272;8.590;2023-05-10T08:59:47;41.42;33.65;60.36;;
70245;Laerm;57637;49.272;8.590;2023-05-10T09:02:13;44.26;35.18;60.85;;
70245;Laerm;57637;49.272;8.590;2023-05-10T09:04:39;43.51;35.36;59.21;;
70245;Laerm;57637;49.272;8.590;2023-05-10T09:07:04;42.65;34.08;60.03;;
70245;Laerm;57637;49.272;8.590;2023-05-10T09:09:31;42.95;33.28;57.63;;
70245;Laerm;57637;49.272;8.590;2023-05-10T09:11:56;43.05;34.91;58.29;;
70245;Laerm;57637;49.272;8.590;2023-05-10T09:14:23;41.86;33.81;52.58;;
70245;Laerm;57637;49.272;8.590;2023-05-10T09:16:48;40.44;33.67;59.69;;
70245;Laerm;57637;49.272;8.590;2023-05-10T09:19:14;42.94;33.40;62.77;;
70245;Laerm;57637;49.272;8.590;2023-05-10T09:21:39;39.88;33.97;59.96;;
70245;Laerm;57637;49.272;8.590;2023-05-10T09:24:06;40.76;34.29;56.70;;
70245;Laerm;57637;49.272;8.590;2023-05-10T09:26:32;40.14;33.85;62.67;;
70245;Laerm;57637;49.272;8.590;2023-05-10T09:28:59;37.80;33.74;54.83;;
70245;Laerm;57637;49.272;8.590;2023-05-10T09:31:43;38.20;32.96;52.84;;
70245;Laerm;57637;49.272;8.590;2023-05-10T09:34:09;39.87;33.66;55.93;;
70245;Laerm;57637;49.272;8.590;2023-05-10T09:36:35;41.61;33.81;58.86;;
70245;Laerm;57637;49.272;8.590;2023-05-10T09:39:00;39.59;33.86;58.84;;
70245;Laerm;57637;49.272;8.590;2023-05-10T09:41:26;37.62;32.57;54.28;;
70245;Laerm;57637;49.272;8.590;2023-05-10T09:43:55;41.29;32.86;57.11;;
70245;Laerm;57637;49.272;8.590;2023-05-10T09:46:21;38.38;32.73;49.42;;
70245;Laerm;57637;49.272;8.590;2023-05-10T09:48:48;37.83;32.43;49.31;;
70245;Laerm;57637;49.272;8.590;2023-05-10T09:51:24;41.98;32.73;61.66;;
70245;Laerm;57637;49.272;8.590;2023-05-10T09:54:10;40.69;34.17;60.70;;
70245;Laerm;57637;49.272;8.590;2023-05-10T09:56:36;44.87;34.43;61.05;;
70245;Laerm;57637;49.272;8.590;2023-05-10T09:59:04;45.58;35.35;67.31;;
70245;Laerm;57637;49.272;8.590;2023-05-10T10:01:30;53.06;33.52;70.15;;
70245;Laerm;57637;49.272;8.590;2023-05-10T10:03:56;53.16;33.40;78.64;;
70245;Laerm;57637;49.272;8.590;2023-05-10T10:06:23;39.85;33.81;55.11;;
70245;Laerm;57637;49.272;8.590;2023-05-10T10:08:49;38.81;31.89;56.18;;
70245;Laerm;57637;49.272;8.590;2023-05-10T10:11:15;39.88;34.01;57.22;;
70245;Laerm;57637;49.272;8.590;2023-05-10T10:13:41;42.13;33.63;61.99;;
70245;Laerm;57637;49.272;8.590;2023-05-10T10:16:08;41.74;35.35;61.28;;
70245;Laerm;57637;49.272;8.590;2023-05-10T10:18:35;43.25;35.45;56.02;;
70245;Laerm;57637;49.272;8.590;2023-05-10T10:21:07;41.95;34.04;58.53;;
70245;Laerm;57637;49.272;8.590;2023-05-10T10:23:34;40.91;34.92;57.78;;
70245;Laerm;57637;49.272;8.590;2023-05-10T10:26:02;42.75;36.95;63.29;;
70245;Laerm;57637;49.272;8.590;2023-05-10T10:31:41;45.66;34.48;62.71;;
70245;Laerm;57637;49.272;8.590;2023-05-10T10:34:11;44.65;33.39;65.55;;
70245;Laerm;57637;49.272;8.590;2023-05-10T10:36:46;46.95;32.88;65.81;;
70245;Laerm;57637;49.272;8.590;2023-05-10T10:39:12;53.67;33.71;84.32;;
70245;Laerm;57637;49.272;8.590;2023-05-10T10:41:58;43.77;32.23;65.42;;
70245;Laerm;57637;49.272;8.590;2023-05-10T10:47:06;40.99;33.42;61.23;;
70245;Laerm;57637;49.272;8.590;2023-05-10T10:52:21;41.82;32.42;63.22;;
70245;Laerm;57637;49.272;8.590;2023-05-10T10:54:50;41.69;33.68;59.55;;
70245;Laerm;57637;49.272;8.590;2023-05-10T10:57:18;43.39;34.18;65.62;;
70245;Laerm;57637;49.272;8.590;2023-05-10T10:59:44;44.22;33.61;57.63;;
70245;Laerm;57637;49.272;8.590;2023-05-10T11:02:17;62.98;33.82;76.08;;
70245;Laerm;57637;49.272;8.590;2023-05-10T11:04:55;39.29;32.68;56.29;;
70245;Laerm;57637;49.272;8.590;2023-05-10T11:07:21;41.06;33.66;60.96;;
70245;Laerm;57637;49.272;8.590;2023-05-10T11:09:49;42.27;34.37;65.77;;
70245;Laerm;57637;49.272;8.590;2023-05-10T11:12:18;43.51;34.76;58.15;;
70245;Laerm;57637;49.272;8.590;2023-05-10T11:14:49;58.25;35.11;74.60;;
70245;Laerm;57637;49.272;8.590;2023-05-10T11:17:27;40.66;34.57;55.12;;
70245;Laerm;57637;49.272;8.590;2023-05-10T11:20:10;47.65;35.95;71.93;;
70245;Laerm;57637;49.272;8.590;2023-05-10T11:22:54;41.49;33.83;64.32;;
70245;Laerm;57637;49.272;8.590;2023-05-10T11:25:23;40.00;33.30;54.04;;
70245;Laerm;57637;49.272;8.590;2023-05-10T11:27:51;45.16;33.65;63.61;;
70245;Laerm;57637;49.272;8.590;2023-05-10T11:30:17;40.69;34.07;57.67;;
70245;Laerm;57637;49.272;8.590;2023-05-10T11:32:42;43.20;32.43;60.49;;
70245;Laerm;57637;49.272;8.590;2023-05-10T11:35:11;38.94;31.85;57.35;;
70245;Laerm;57637;49.272;8.590;2023-05-10T11:37:38;38.48;33.29;54.02;;
70245;Laerm;57637;49.272;8.590;2023-05-10T11:40:08;39.40;32.85;63.10;;
70245;Laerm;57637;49.272;8.590;2023-05-10T11:42:37;45.92;33.76;63.03;;
70245;Laerm;57637;49.272;8.590;2023-05-10T11:45:02;47.00;34.85;64.48;;
70245;Laerm;57637;49.272;8.590;2023-05-10T11:47:28;70.74;36.24;84.78;;
70245;Laerm;57637;49.272;8.590;2023-05-10T11:49:53;42.07;35.85;53.53;;
70245;Laerm;57637;49.272;8.590;2023-05-10T11:52:19;44.21;38.72;62.39;;
70245;Laerm;57637;49.272;8.590;2023-05-10T11:54:54;41.67;35.11;53.79;;
70245;Laerm;57637;49.272;8.590;2023-05-10T11:57:21;40.41;33.40;61.45;;
70245;Laerm;57637;49.272;8.590;2023-05-10T11:59:54;40.88;34.56;51.89;;
70245;Laerm;57637;49.272;8.590;2023-05-10T12:02:20;42.64;33.63;55.84;;
70245;Laerm;57637;49.272;8.590;2023-05-10T12:04:46;39.84;34.05;51.90;;
70245;Laerm;57637;49.272;8.590;2023-05-10T12:07:11;43.19;34.55;63.31;;
70245;Laerm;57637;49.272;8.590;2023-05-10T12:09:37;39.85;32.84;61.77;;
70245;Laerm;57637;49.272;8.590;2023-05-10T12:12:07;41.75;32.59;66.39;;
70245;Laerm;57637;49.272;8.590;2023-05-10T12:14:34;40.94;34.17;54.74;;
70245;Laerm;57637;49.272;8.590;2023-05-10T12:17:00;40.45;34.07;56.42;;
70245;Laerm;57637;49.272;8.590;2023-05-10T12:19:25;40.20;34.22;52.42;;
70245;Laerm;57637;49.272;8.590;2023-05-10T12:21:51;40.62;34.43;52.54;;
70245;Laerm;57637;49.272;8.590;2023-05-10T12:24:16;39.86;34.52;57.98;;
70245;Laerm;57637;49.272;8.590;2023-05-10T12:26:45;46.68;36.22;71.40;;
70245;Laerm;57637;49.272;8.590;2023-05-10T12:29:17;46.09;37.36;64.34;;
70245;Laerm;57637;49.272;8.590;2023-05-10T12:31:54;44.00;33.98;58.28;;
70245;Laerm;57637;49.272;8.590;2023-05-10T12:34:24;45.64;36.62;58.55;;
70245;Laerm;57637;49.272;8.590;2023-05-10T12:36:53;41.70;34.98;54.20;;
70245;Laerm;57637;49.272;8.590;2023-05-10T12:39:19;45.22;35.39;61.65;;
70245;Laerm;57637;49.272;8.590;2023-05-10T12:41:45;42.08;35.11;53.69;;
70245;Laerm;57637;49.272;8.590;2023-05-10T12:44:10;57.67;33.55;80.66;;
70245;Laerm;57637;49.272;8.590;2023-05-10T12:46:35;48.59;36.16;73.69;;
70245;Laerm;57637;49.272;8.590;2023-05-10T12:49:01;43.10;37.74;66.70;;
70245;Laerm;57637;49.272;8.590;2023-05-10T12:51:26;41.94;35.12;63.09;;
70245;Laerm;57637;49.272;8.590;2023-05-10T12:53:52;47.82;35.13;69.46;;
70245;Laerm;57637;49.272;8.590;2023-05-10T12:56:17;52.14;33.80;67.23;;
70245;Laerm;57637;49.272;8.590;2023-05-10T12:58:42;57.65;32.95;77.53;;
70245;Laerm;57637;49.272;8.590;2023-05-10T13:01:13;52.97;34.35;78.21;;
70245;Laerm;57637;49.272;8.590;2023-05-10T13:03:38;66.23;34.73;88.28;;
70245;Laerm;57637;49.272;8.590;2023-05-10T13:06:04;64.66;35.97;83.20;;
70245;Laerm;57637;49.272;8.590;2023-05-10T13:08:30;51.43;33.97;75.42;;
70245;Laerm;57637;49.272;8.590;2023-05-10T13:10:59;43.97;35.64;65.70;;
70245;Laerm;57637;49.272;8.590;2023-05-10T13:13:24;64.69;33.58;82.94;;
70245;Laerm;57637;49.272;8.590;2023-05-10T13:15:50;43.44;34.13;64.38;;
70245;Laerm;57637;49.272;8.590;2023-05-10T13:18:15;42.10;35.52;56.98;;
70245;Laerm;57637;49.272;8.590;2023-05-10T13:20:40;41.64;34.84;63.49;;
70245;Laerm;57637;49.272;8.590;2023-05-10T13:23:06;55.38;33.78;73.53;;
70245;Laerm;57637;49.272;8.590;2023-05-10T13:25:31;55.78;33.67;73.77;;
70245;Laerm;57637;49.272;8.590;2023-05-10T13:27:57;49.95;37.18;65.12;;
70245;Laerm;57637;49.272;8.590;2023-05-10T13:30:22;44.03;36.04;61.45;;
70245;Laerm;57637;49.272;8.590;2023-05-10T13:32:49;40.33;34.84;54.13;;
70245;Laerm;57637;49.272;8.590;2023-05-10T13:35:14;44.70;34.44;58.77;;
70245;Laerm;57637;49.272;8.590;2023-05-10T13:37:40;42.37;34.75;62.09;;
70245;Laerm;57637;49.272;8.590;2023-05-10T13:40:07;43.80;35.50;65.84;;
70245;Laerm;57637;49.272;8.590;2023-05-10T13:42:33;43.76;34.71;67.46;;
70245;Laerm;57637;49.272;8.590;2023-05-10T13:44:59;41.74;35.25;64.07;;
70245;Laerm;57637;49.272;8.590;2023-05-10T13:47:26;54.19;34.75;78.57;;
70245;Laerm;57637;49.272;8.590;2023-05-10T13:49:51;57.61;36.92;80.06;;
70245;Laerm;57637;49.272;8.590;2023-05-10T13:52:17;54.29;35.92;74.29;;
70245;Laerm;57637;49.272;8.590;2023-05-10T13:54:43;54.21;34.44;74.63;;
70245;Laerm;57637;49.272;8.590;2023-05-10T13:57:11;46.44;35.19;67.03;;
70245;Laerm;57637;49.272;8.590;2023-05-10T13:59:39;49.85;37.00;71.79;;
70245;Laerm;57637;49.272;8.590;2023-05-10T14:02:04;44.99;35.54;65.95;;
70245;Laerm;57637;49.272;8.590;2023-05-10T14:04:30;65.53;40.51;73.87;;